sensor_id;sensor_type;location;lat;lon;timestamp;P1;durP1;ratioP1;P2;durP2;ratioP2
1879;SDS011;49285;49.002;8.390;2023-09-18T00:00:47;6.23;;;4.50;;
1879;SDS011;49285;49.002;8.390;2023-09-18T00:03:16;7.00;;;4.63;;
1879;SDS011;49285;49.002;8.390;2023-09-18T00:05:44;6.00;;;4.07;;
1879;SDS011;49285;49.002;8.390;2023-09-18T00:08:10;5.70;;;4.70;;
1879;SDS011;49285;49.002;8.390;2023-09-18T00:10:36;9.53;;;5.23;;
1879;SDS011;49285;49.002;8.390;2023-09-18T00:13:02;8.33;;;4.37;;
1879;SDS011;49285;49.002;8.390;2023-09-18T00:15:27;5.40;;;4.50;;
1879;SDS011;49285;49.002;8.390;2023-09-18T00:17:53;7.63;;;3.93;;
1879;SDS011;49285;49.002;8.390;2023-09-18T00:20:19;9.97;;;4.47;;
1879;SDS011;49285;49.002;8.390;2023-09-18T00:22:45;5.70;;;4.77;;
1879;SDS011;49285;49.002;8.390;2023-09-18T00:25:11;4.60;;;4.20;;
1879;SDS011;49285;49.002;8.390;2023-09-18T00:27:37;6.00;;;4.53;;
1879;SDS011;49285;49.002;8.390;2023-09-18T00:30:03;6.20;;;4.10;;
1879;SDS011;49285;49.002;8.390;2023-09-18T00:32:29;5.87;;;4.83;;
1879;SDS011;49285;49.002;8.390;2023-09-18T00:34:55;7.30;;;5.20;;
1879;SDS011;49285;49.002;8.390;2023-09-18T00:37:21;5.40;;;4.40;;
1879;SDS011;49285;49.002;8.390;2023-09-18T00:39:46;5.20;;;4.60;;
1879;SDS011;49285;49.002;8.390;2023-09-18T00:42:14;5.23;;;3.90;;
1879;SDS011;49285;49.002;8.390;2023-09-18T00:44:41;4.50;;;4.10;;
1879;SDS011;49285;49.002;8.390;2023-09-18T00:47:07;13.03;;;10.83;;
1879;SDS011;49285;49.002;8.390;2023-09-18T00:49:33;5.40;;;4.50;;
1879;SDS011;49285;49.002;8.390;2023-09-18T00:52:00;7.40;;;5.37;;
1879;SDS011;49285;49.002;8.390;2023-09-18T00:54:27;8.20;;;5.57;;
1879;SDS011;49285;49.002;8.390;2023-09-18T00:56:53;7.43;;;6.07;;
1879;SDS011;49285;49.002;8.390;2023-09-18T00:59:20;7.37;;;4.87;;
1879;SDS011;49285;49.002;8.390;2023-09-18T01:01:46;7.20;;;4.10;;
1879;SDS011;49285;49.002;8.390;2023-09-18T01:04:15;6.23;;;4.97;;
1879;SDS011;49285;49.002;8.390;2023-09-18T01:06:42;7.87;;;5.37;;
1879;SDS011;49285;49.002;8.390;2023-09-18T01:09:08;6.23;;;5.73;;
1879;SDS011;49285;49.002;8.390;2023-09-18T01:16:57;6.33;;;4.80;;
1879;SDS011;49285;49.002;8.390;2023-09-18T01:19:43;8.30;;;4.77;;
1879;SDS011;49285;49.002;8.390;2023-09-18T01:22:11;6.80;;;4.93;;
1879;SDS011;49285;49.002;8.390;2023-09-18T01:24:38;10.70;;;5.33;;
1879;SDS011;49285;49.002;8.390;2023-09-18T01:27:05;12.13;;;5.83;;
1879;SDS011;49285;49.002;8.390;2023-09-18T01:29:33;7.43;;;4.70;;
1879;SDS011;49285;49.002;8.390;2023-09-18T01:31:59;8.33;;;4.97;;
1879;SDS011;49285;49.002;8.390;2023-09-18T01:34:34;9.10;;;5.17;;
1879;SDS011;49285;49.002;8.390;2023-09-18T01:37:03;10.33;;;5.73;;
1879;SDS011;49285;49.002;8.390;2023-09-18T01:39:30;9.50;;;5.00;;
1879;SDS011;49285;49.002;8.390;2023-09-18T01:41:58;6.37;;;5.17;;
1879;SDS011;49285;49.002;8.390;2023-09-18T01:44:26;8.30;;;5.03;;
1879;SDS011;49285;49.002;8.390;2023-09-18T01:46:52;6.57;;;5.10;;
1879;SDS011;49285;49.002;8.390;2023-09-18T01:49:28;6.40;;;5.20;;
1879;SDS011;49285;49.002;8.390;2023-09-18T01:52:00;11.50;;;5.63;;
1879;SDS011;49285;49.002;8.390;2023-09-18T01:54:26;5.83;;;4.93;;
1879;SDS011;49285;49.002;8.390;2023-09-18T01:56:52;6.10;;;4.80;;
1879;SDS011;49285;49.002;8.390;2023-09-18T01:59:18;8.73;;;5.27;;
1879;SDS011;49285;49.002;8.390;2023-09-18T02:01:44;6.17;;;4.93;;
1879;SDS011;49285;49.002;8.390;2023-09-18T02:04:09;8.13;;;5.33;;
1879;SDS011;49285;49.002;8.390;2023-09-18T02:06:35;6.60;;;4.80;;
1879;SDS011;49285;49.002;8.390;2023-09-18T02:09:01;9.83;;;5.00;;
1879;SDS011;49285;49.002;8.390;2023-09-18T02:11:28;5.90;;;4.93;;
1879;SDS011;49285;49.002;8.390;2023-09-18T02:13:54;12.73;;;4.50;;
1879;SDS011;49285;49.002;8.390;2023-09-18T02:16:19;8.93;;;5.27;;
1879;SDS011;49285;49.002;8.390;2023-09-18T02:18:49;7.30;;;5.00;;
1879;SDS011;49285;49.002;8.390;2023-09-18T02:21:21;6.27;;;5.00;;
1879;SDS011;49285;49.002;8.390;2023-09-18T02:23:50;8.33;;;4.97;;
1879;SDS011;49285;49.002;8.390;2023-09-18T02:26:20;8.43;;;5.10;;
1879;SDS011;49285;49.002;8.390;2023-09-18T02:28:46;12.30;;;4.83;;
1879;SDS011;49285;49.002;8.390;2023-09-18T02:31:12;12.20;;;5.33;;
1879;SDS011;49285;49.002;8.390;2023-09-18T02:33:39;7.30;;;5.30;;
1879;SDS011;49285;49.002;8.390;2023-09-18T02:36:06;7.60;;;5.17;;
1879;SDS011;49285;49.002;8.390;2023-09-18T02:38:32;6.63;;;4.90;;
1879;SDS011;49285;49.002;8.390;2023-09-18T02:40:58;8.30;;;4.67;;
1879;SDS011;49285;49.002;8.390;2023-09-18T02:43:24;15.00;;;5.00;;
1879;SDS011;49285;49.002;8.390;2023-09-18T02:45:49;6.00;;;4.60;;
1879;SDS011;49285;49.002;8.390;2023-09-18T02:48:15;6.80;;;4.97;;
1879;SDS011;49285;49.002;8.390;2023-09-18T02:50:41;7.77;;;5.27;;
1879;SDS011;49285;49.002;8.390;2023-09-18T02:53:07;6.53;;;4.50;;
1879;SDS011;49285;49.002;8.390;2023-09-18T02:55:41;6.80;;;4.50;;
1879;SDS011;49285;49.002;8.390;2023-09-18T02:58:06;4.50;;;4.10;;
1879;SDS011;49285;49.002;8.390;2023-09-18T03:00:34;6.53;;;5.10;;
1879;SDS011;49285;49.002;8.390;2023-09-18T03:02:59;9.60;;;4.67;;
1879;SDS011;49285;49.002;8.390;2023-09-18T03:05:25;6.23;;;4.83;;
1879;SDS011;49285;49.002;8.390;2023-09-18T03:07:51;7.20;;;5.03;;
1879;SDS011;49285;49.002;8.390;2023-09-18T03:10:17;6.13;;;4.77;;
1879;SDS011;49285;49.002;8.390;2023-09-18T03:12:43;11.73;;;5.00;;
1879;SDS011;49285;49.002;8.390;2023-09-18T03:15:13;7.43;;;4.23;;
1879;SDS011;49285;49.002;8.390;2023-09-18T03:17:38;8.73;;;4.67;;
1879;SDS011;49285;49.002;8.390;2023-09-18T03:20:06;6.53;;;5.13;;
1879;SDS011;49285;49.002;8.390;2023-09-18T03:22:33;6.33;;;4.00;;
1879;SDS011;49285;49.002;8.390;2023-09-18T03:24:58;7.30;;;4.00;;
1879;SDS011;49285;49.002;8.390;2023-09-18T03:27:24;5.97;;;4.80;;
1879;SDS011;49285;49.002;8.390;2023-09-18T03:29:53;8.30;;;4.60;;
1879;SDS011;49285;49.002;8.390;2023-09-18T03:32:22;8.60;;;5.17;;
1879;SDS011;49285;49.002;8.390;2023-09-18T03:34:51;11.57;;;4.90;;
1879;SDS011;49285;49.002;8.390;2023-09-18T03:37:17;11.60;;;5.03;;
1879;SDS011;49285;49.002;8.390;2023-09-18T03:39:43;6.20;;;4.10;;
1879;SDS011;49285;49.002;8.390;2023-09-18T03:42:09;8.43;;;4.50;;
1879;SDS011;49285;49.002;8.390;2023-09-18T03:44:34;7.10;;;4.23;;
1879;SDS011;49285;49.002;8.390;2023-09-18T03:47:00;9.10;;;4.07;;
1879;SDS011;49285;49.002;8.390;2023-09-18T03:49:27;13.23;;;5.70;;
1879;SDS011;49285;49.002;8.390;2023-09-18T03:51:53;12.00;;;4.90;;
1879;SDS011;49285;49.002;8.390;2023-09-18T03:54:18;16.10;;;5.03;;
1879;SDS011;49285;49.002;8.390;2023-09-18T03:56:44;10.63;;;4.47;;
1879;SDS011;49285;49.002;8.390;2023-09-18T03:59:11;14.67;;;5.27;;
1879;SDS011;49285;49.002;8.390;2023-09-18T04:01:37;8.40;;;4.77;;
1879;SDS011;49285;49.002;8.390;2023-09-18T04:04:02;6.20;;;4.57;;
1879;SDS011;49285;49.002;8.390;2023-09-18T04:06:35;10.10;;;4.57;;
1879;SDS011;49285;49.002;8.390;2023-09-18T04:09:02;13.27;;;4.40;;
1879;SDS011;49285;49.002;8.390;2023-09-18T04:11:28;10.60;;;4.07;;
1879;SDS011;49285;49.002;8.390;2023-09-18T04:13:57;7.70;;;3.97;;
1879;SDS011;49285;49.002;8.390;2023-09-18T04:16:24;12.67;;;4.10;;
1879;SDS011;49285;49.002;8.390;2023-09-18T04:18:50;10.07;;;5.33;;
1879;SDS011;49285;49.002;8.390;2023-09-18T04:21:15;12.23;;;4.90;;
1879;SDS011;49285;49.002;8.390;2023-09-18T04:23:41;8.00;;;4.17;;
1879;SDS011;49285;49.002;8.390;2023-09-18T04:26:07;8.00;;;3.90;;
1879;SDS011;49285;49.002;8.390;2023-09-18T04:28:32;7.73;;;4.97;;
1879;SDS011;49285;49.002;8.390;2023-09-18T04:30:58;11.97;;;5.00;;
1879;SDS011;49285;49.002;8.390;2023-09-18T04:33:24;7.87;;;4.80;;
1879;SDS011;49285;49.002;8.390;2023-09-18T04:35:50;8.07;;;4.27;;
1879;SDS011;49285;49.002;8.390;2023-09-18T04:38:16;10.17;;;4.60;;
1879;SDS011;49285;49.002;8.390;2023-09-18T04:40:44;9.23;;;4.30;;
1879;SDS011;49285;49.002;8.390;2023-09-18T04:43:10;9.20;;;4.13;;
1879;SDS011;49285;49.002;8.390;2023-09-18T04:45:36;7.60;;;3.70;;
1879;SDS011;49285;49.002;8.390;2023-09-18T04:48:02;6.00;;;3.83;;
1879;SDS011;49285;49.002;8.390;2023-09-18T04:50:30;8.30;;;3.87;;
1879;SDS011;49285;49.002;8.390;2023-09-18T04:52:58;13.80;;;4.47;;
1879;SDS011;49285;49.002;8.390;2023-09-18T04:55:24;10.50;;;4.20;;
1879;SDS011;49285;49.002;8.390;2023-09-18T04:57:50;8.17;;;4.23;;
1879;SDS011;49285;49.002;8.390;2023-09-18T05:00:16;11.80;;;4.40;;
1879;SDS011;49285;49.002;8.390;2023-09-18T05:02:42;12.63;;;4.30;;
1879;SDS011;49285;49.002;8.390;2023-09-18T05:05:07;7.30;;;4.00;;
1879;SDS011;49285;49.002;8.390;2023-09-18T05:07:36;8.80;;;4.03;;
1879;SDS011;49285;49.002;8.390;2023-09-18T05:10:02;12.30;;;4.97;;
1879;SDS011;49285;49.002;8.390;2023-09-18T05:12:29;19.50;;;6.80;;
1879;SDS011;49285;49.002;8.390;2023-09-18T05:15:01;7.17;;;4.00;;
1879;SDS011;49285;49.002;8.390;2023-09-18T05:17:42;9.20;;;4.67;;
1879;SDS011;49285;49.002;8.390;2023-09-18T05:20:12;8.47;;;4.43;;
1879;SDS011;49285;49.002;8.390;2023-09-18T05:22:41;11.93;;;4.33;;
1879;SDS011;49285;49.002;8.390;2023-09-18T05:25:07;11.30;;;5.40;;
1879;SDS011;49285;49.002;8.390;2023-09-18T05:27:35;7.10;;;4.20;;
1879;SDS011;49285;49.002;8.390;2023-09-18T05:30:01;9.93;;;3.80;;
1879;SDS011;49285;49.002;8.390;2023-09-18T05:32:26;6.73;;;3.97;;
1879;SDS011;49285;49.002;8.390;2023-09-18T05:34:52;10.60;;;5.00;;
1879;SDS011;49285;49.002;8.390;2023-09-18T05:37:18;9.40;;;3.50;;
1879;SDS011;49285;49.002;8.390;2023-09-18T05:39:43;12.30;;;5.03;;
1879;SDS011;49285;49.002;8.390;2023-09-18T05:42:09;9.57;;;4.00;;
1879;SDS011;49285;49.002;8.390;2023-09-18T05:44:34;9.83;;;3.60;;
1879;SDS011;49285;49.002;8.390;2023-09-18T05:47:00;8.83;;;3.53;;
1879;SDS011;49285;49.002;8.390;2023-09-18T05:49:28;7.43;;;4.00;;
1879;SDS011;49285;49.002;8.390;2023-09-18T05:51:55;9.63;;;4.30;;
1879;SDS011;49285;49.002;8.390;2023-09-18T05:54:20;7.07;;;3.83;;
1879;SDS011;49285;49.002;8.390;2023-09-18T05:56:46;7.87;;;3.90;;
1879;SDS011;49285;49.002;8.390;2023-09-18T05:59:12;9.73;;;4.90;;
1879;SDS011;49285;49.002;8.390;2023-09-18T06:01:41;7.33;;;4.23;;
1879;SDS011;49285;49.002;8.390;2023-09-18T06:04:06;8.87;;;4.33;;
1879;SDS011;49285;49.002;8.390;2023-09-18T06:06:32;9.60;;;4.40;;
1879;SDS011;49285;49.002;8.390;2023-09-18T06:08:57;12.47;;;5.23;;
1879;SDS011;49285;49.002;8.390;2023-09-18T06:11:24;9.70;;;4.90;;
1879;SDS011;49285;49.002;8.390;2023-09-18T06:13:49;11.60;;;5.10;;
1879;SDS011;49285;49.002;8.390;2023-09-18T06:16:15;12.50;;;4.63;;
1879;SDS011;49285;49.002;8.390;2023-09-18T06:18:40;10.53;;;4.97;;
1879;SDS011;49285;49.002;8.390;2023-09-18T06:21:06;13.90;;;4.47;;
1879;SDS011;49285;49.002;8.390;2023-09-18T06:23:32;9.60;;;4.20;;
1879;SDS011;49285;49.002;8.390;2023-09-18T06:25:58;11.53;;;4.23;;
1879;SDS011;49285;49.002;8.390;2023-09-18T06:28:24;9.70;;;4.77;;
1879;SDS011;49285;49.002;8.390;2023-09-18T06:30:50;9.67;;;4.97;;
1879;SDS011;49285;49.002;8.390;2023-09-18T06:33:16;8.03;;;3.90;;
1879;SDS011;49285;49.002;8.390;2023-09-18T06:35:42;9.63;;;4.80;;
1879;SDS011;49285;49.002;8.390;2023-09-18T06:38:07;9.87;;;3.80;;
1879;SDS011;49285;49.002;8.390;2023-09-18T06:40:35;8.83;;;4.47;;
1879;SDS011;49285;49.002;8.390;2023-09-18T06:43:01;13.30;;;8.50;;
1879;SDS011;49285;49.002;8.390;2023-09-18T06:45:26;8.67;;;4.00;;
1879;SDS011;49285;49.002;8.390;2023-09-18T06:47:55;10.67;;;4.10;;
1879;SDS011;49285;49.002;8.390;2023-09-18T06:50:20;9.03;;;4.53;;
1879;SDS011;49285;49.002;8.390;2023-09-18T06:52:46;8.10;;;4.90;;
1879;SDS011;49285;49.002;8.390;2023-09-18T06:55:12;7.20;;;3.80;;
1879;SDS011;49285;49.002;8.390;2023-09-18T06:57:37;8.63;;;3.63;;
1879;SDS011;49285;49.002;8.390;2023-09-18T07:00:03;12.50;;;4.40;;
1879;SDS011;49285;49.002;8.390;2023-09-18T07:02:30;10.70;;;4.00;;
1879;SDS011;49285;49.002;8.390;2023-09-18T07:04:56;9.10;;;3.50;;
1879;SDS011;49285;49.002;8.390;2023-09-18T07:07:21;6.00;;;3.63;;
1879;SDS011;49285;49.002;8.390;2023-09-18T07:09:51;9.50;;;4.07;;
1879;SDS011;49285;49.002;8.390;2023-09-18T07:12:17;8.20;;;4.07;;
1879;SDS011;49285;49.002;8.390;2023-09-18T07:14:46;6.87;;;3.50;;
1879;SDS011;49285;49.002;8.390;2023-09-18T07:17:12;6.87;;;3.50;;
1879;SDS011;49285;49.002;8.390;2023-09-18T07:19:38;6.20;;;3.60;;
1879;SDS011;49285;49.002;8.390;2023-09-18T07:22:04;7.30;;;4.37;;
1879;SDS011;49285;49.002;8.390;2023-09-18T07:24:29;10.63;;;3.40;;
1879;SDS011;49285;49.002;8.390;2023-09-18T07:26:55;7.87;;;3.20;;
1879;SDS011;49285;49.002;8.390;2023-09-18T07:29:22;5.93;;;3.17;;
1879;SDS011;49285;49.002;8.390;2023-09-18T07:31:50;7.57;;;2.63;;
1879;SDS011;49285;49.002;8.390;2023-09-18T07:34:16;5.90;;;3.03;;
1879;SDS011;49285;49.002;8.390;2023-09-18T07:36:42;6.77;;;3.37;;
1879;SDS011;49285;49.002;8.390;2023-09-18T07:39:09;5.37;;;2.60;;
1879;SDS011;49285;49.002;8.390;2023-09-18T07:41:36;7.20;;;4.40;;
1879;SDS011;49285;49.002;8.390;2023-09-18T07:44:02;3.80;;;2.70;;
1879;SDS011;49285;49.002;8.390;2023-09-18T07:46:28;3.27;;;1.90;;
1879;SDS011;49285;49.002;8.390;2023-09-18T07:48:54;8.20;;;2.80;;
1879;SDS011;49285;49.002;8.390;2023-09-18T07:51:19;6.40;;;2.90;;
1879;SDS011;49285;49.002;8.390;2023-09-18T07:53:45;4.60;;;2.17;;
1879;SDS011;49285;49.002;8.390;2023-09-18T07:56:11;4.63;;;2.40;;
1879;SDS011;49285;49.002;8.390;2023-09-18T07:58:37;4.77;;;2.30;;
1879;SDS011;49285;49.002;8.390;2023-09-18T08:01:06;3.00;;;1.90;;
1879;SDS011;49285;49.002;8.390;2023-09-18T08:03:34;3.07;;;1.97;;
1879;SDS011;49285;49.002;8.390;2023-09-18T08:06:00;4.80;;;2.17;;
1879;SDS011;49285;49.002;8.390;2023-09-18T08:08:26;4.10;;;2.10;;
1879;SDS011;49285;49.002;8.390;2023-09-18T08:10:52;4.53;;;1.90;;
1879;SDS011;49285;49.002;8.390;2023-09-18T08:13:18;3.40;;;2.00;;
1879;SDS011;49285;49.002;8.390;2023-09-18T08:15:45;5.03;;;2.37;;
1879;SDS011;49285;49.002;8.390;2023-09-18T08:18:11;5.73;;;2.33;;
1879;SDS011;49285;49.002;8.390;2023-09-18T08:20:41;5.33;;;2.23;;
1879;SDS011;49285;49.002;8.390;2023-09-18T08:23:07;3.33;;;2.00;;
1879;SDS011;49285;49.002;8.390;2023-09-18T08:25:34;2.50;;;1.67;;
1879;SDS011;49285;49.002;8.390;2023-09-18T08:27:59;3.73;;;1.80;;
1879;SDS011;49285;49.002;8.390;2023-09-18T08:30:25;5.23;;;1.90;;
1879;SDS011;49285;49.002;8.390;2023-09-18T08:32:51;4.40;;;2.03;;
1879;SDS011;49285;49.002;8.390;2023-09-18T08:35:16;4.03;;;1.80;;
1879;SDS011;49285;49.002;8.390;2023-09-18T08:37:42;3.73;;;2.23;;
1879;SDS011;49285;49.002;8.390;2023-09-18T08:40:12;4.83;;;1.80;;
1879;SDS011;49285;49.002;8.390;2023-09-18T08:42:39;5.17;;;1.70;;
1879;SDS011;49285;49.002;8.390;2023-09-18T08:45:10;5.10;;;2.20;;
1879;SDS011;49285;49.002;8.390;2023-09-18T08:47:44;3.80;;;1.73;;
1879;SDS011;49285;49.002;8.390;2023-09-18T08:50:11;3.90;;;2.23;;
1879;SDS011;49285;49.002;8.390;2023-09-18T08:52:37;3.37;;;1.77;;
1879;SDS011;49285;49.002;8.390;2023-09-18T08:55:05;3.50;;;2.07;;
1879;SDS011;49285;49.002;8.390;2023-09-18T08:57:32;4.53;;;2.40;;
1879;SDS011;49285;49.002;8.390;2023-09-18T09:00:00;4.30;;;2.03;;
1879;SDS011;49285;49.002;8.390;2023-09-18T09:02:31;4.20;;;2.40;;
1879;SDS011;49285;49.002;8.390;2023-09-18T09:04:58;3.07;;;2.00;;
1879;SDS011;49285;49.002;8.390;2023-09-18T09:07:25;3.63;;;2.20;;
1879;SDS011;49285;49.002;8.390;2023-09-18T09:09:51;4.67;;;2.93;;
1879;SDS011;49285;49.002;8.390;2023-09-18T09:12:39;4.93;;;2.10;;
1879;SDS011;49285;49.002;8.390;2023-09-18T09:15:23;4.47;;;1.93;;
1879;SDS011;49285;49.002;8.390;2023-09-18T09:18:03;4.67;;;2.20;;
1879;SDS011;49285;49.002;8.390;2023-09-18T09:20:30;4.80;;;1.80;;
1879;SDS011;49285;49.002;8.390;2023-09-18T09:22:59;3.33;;;2.10;;
1879;SDS011;49285;49.002;8.390;2023-09-18T09:25:27;3.80;;;2.40;;
1879;SDS011;49285;49.002;8.390;2023-09-18T09:27:56;7.10;;;2.40;;
1879;SDS011;49285;49.002;8.390;2023-09-18T09:30:26;5.70;;;2.03;;
1879;SDS011;49285;49.002;8.390;2023-09-18T09:32:54;3.20;;;1.80;;
1879;SDS011;49285;49.002;8.390;2023-09-18T09:35:21;4.90;;;1.97;;
1879;SDS011;49285;49.002;8.390;2023-09-18T09:38:19;3.93;;;2.00;;
1879;SDS011;49285;49.002;8.390;2023-09-18T09:40:46;3.30;;;2.03;;
1879;SDS011;49285;49.002;8.390;2023-09-18T09:43:12;3.07;;;2.03;;
1879;SDS011;49285;49.002;8.390;2023-09-18T09:45:40;3.83;;;2.00;;
1879;SDS011;49285;49.002;8.390;2023-09-18T09:48:07;4.27;;;2.03;;
1879;SDS011;49285;49.002;8.390;2023-09-18T09:50:34;3.90;;;1.87;;
1879;SDS011;49285;49.002;8.390;2023-09-18T09:53:13;5.10;;;2.20;;
1879;SDS011;49285;49.002;8.390;2023-09-18T09:55:39;3.87;;;1.83;;
1879;SDS011;49285;49.002;8.390;2023-09-18T09:58:06;3.60;;;2.50;;
1879;SDS011;49285;49.002;8.390;2023-09-18T10:00:33;6.60;;;3.07;;
1879;SDS011;49285;49.002;8.390;2023-09-18T10:03:14;3.73;;;2.13;;
1879;SDS011;49285;49.002;8.390;2023-09-18T10:05:42;3.60;;;2.33;;
1879;SDS011;49285;49.002;8.390;2023-09-18T10:10:47;4.17;;;2.30;;
1879;SDS011;49285;49.002;8.390;2023-09-18T10:13:18;3.03;;;2.20;;
1879;SDS011;49285;49.002;8.390;2023-09-18T10:15:46;2.80;;;2.00;;
1879;SDS011;49285;49.002;8.390;2023-09-18T10:18:59;3.60;;;2.00;;
1879;SDS011;49285;49.002;8.390;2023-09-18T10:27:00;4.43;;;2.20;;
1879;SDS011;49285;49.002;8.390;2023-09-18T10:29:26;4.23;;;1.77;;
1879;SDS011;49285;49.002;8.390;2023-09-18T10:31:53;3.70;;;2.37;;
1879;SDS011;49285;49.002;8.390;2023-09-18T10:34:19;6.43;;;2.37;;
1879;SDS011;49285;49.002;8.390;2023-09-18T10:36:46;3.10;;;2.53;;
1879;SDS011;49285;49.002;8.390;2023-09-18T10:39:13;4.00;;;1.87;;
1879;SDS011;49285;49.002;8.390;2023-09-18T10:41:46;2.53;;;1.83;;
1879;SDS011;49285;49.002;8.390;2023-09-18T10:44:12;3.27;;;2.00;;
1879;SDS011;49285;49.002;8.390;2023-09-18T10:46:39;6.10;;;2.00;;
1879;SDS011;49285;49.002;8.390;2023-09-18T10:49:05;3.33;;;1.70;;
1879;SDS011;49285;49.002;8.390;2023-09-18T10:51:31;3.57;;;2.13;;
1879;SDS011;49285;49.002;8.390;2023-09-18T10:53:59;3.23;;;1.83;;
1879;SDS011;49285;49.002;8.390;2023-09-18T10:56:25;3.57;;;2.00;;
1879;SDS011;49285;49.002;8.390;2023-09-18T10:58:58;2.90;;;1.97;;
1879;SDS011;49285;49.002;8.390;2023-09-18T11:01:24;2.40;;;2.07;;
1879;SDS011;49285;49.002;8.390;2023-09-18T11:03:52;2.90;;;1.77;;
1879;SDS011;49285;49.002;8.390;2023-09-18T11:06:18;7.50;;;2.00;;
1879;SDS011;49285;49.002;8.390;2023-09-18T11:08:46;3.50;;;1.90;;
1879;SDS011;49285;49.002;8.390;2023-09-18T11:11:16;3.13;;;2.13;;
1879;SDS011;49285;49.002;8.390;2023-09-18T11:13:50;3.83;;;2.47;;
1879;SDS011;49285;49.002;8.390;2023-09-18T11:18:56;3.27;;;2.20;;
1879;SDS011;49285;49.002;8.390;2023-09-18T11:21:33;4.23;;;2.00;;
1879;SDS011;49285;49.002;8.390;2023-09-18T11:24:00;4.53;;;2.07;;
1879;SDS011;49285;49.002;8.390;2023-09-18T11:26:33;2.90;;;2.03;;
1879;SDS011;49285;49.002;8.390;2023-09-18T11:29:07;5.97;;;2.10;;
1879;SDS011;49285;49.002;8.390;2023-09-18T11:36:48;5.57;;;2.13;;
1879;SDS011;49285;49.002;8.390;2023-09-18T11:42:27;2.37;;;1.70;;
1879;SDS011;49285;49.002;8.390;2023-09-18T11:44:53;3.83;;;2.00;;
1879;SDS011;49285;49.002;8.390;2023-09-18T11:47:23;3.07;;;2.10;;
1879;SDS011;49285;49.002;8.390;2023-09-18T11:52:24;6.13;;;2.20;;
1879;SDS011;49285;49.002;8.390;2023-09-18T11:54:51;3.90;;;1.87;;
1879;SDS011;49285;49.002;8.390;2023-09-18T11:57:18;2.63;;;1.87;;
1879;SDS011;49285;49.002;8.390;2023-09-18T11:59:47;3.10;;;1.90;;
1879;SDS011;49285;49.002;8.390;2023-09-18T12:02:13;3.27;;;1.90;;
1879;SDS011;49285;49.002;8.390;2023-09-18T12:04:53;3.43;;;2.23;;
1879;SDS011;49285;49.002;8.390;2023-09-18T12:07:19;4.00;;;2.17;;
1879;SDS011;49285;49.002;8.390;2023-09-18T12:09:45;2.20;;;1.80;;
1879;SDS011;49285;49.002;8.390;2023-09-18T12:12:11;3.60;;;2.10;;
1879;SDS011;49285;49.002;8.390;2023-09-18T12:14:39;3.40;;;2.10;;
1879;SDS011;49285;49.002;8.390;2023-09-18T12:17:07;2.77;;;2.23;;
1879;SDS011;49285;49.002;8.390;2023-09-18T12:19:33;3.77;;;2.27;;
1879;SDS011;49285;49.002;8.390;2023-09-18T12:22:00;3.67;;;1.90;;
1879;SDS011;49285;49.002;8.390;2023-09-18T12:24:26;3.07;;;1.90;;
1879;SDS011;49285;49.002;8.390;2023-09-18T12:26:53;4.40;;;2.10;;
1879;SDS011;49285;49.002;8.390;2023-09-18T12:29:20;3.33;;;2.10;;
1879;SDS011;49285;49.002;8.390;2023-09-18T12:31:46;4.23;;;2.03;;
1879;SDS011;49285;49.002;8.390;2023-09-18T12:36:46;3.30;;;1.90;;
1879;SDS011;49285;49.002;8.390;2023-09-18T12:39:16;3.50;;;1.90;;
1879;SDS011;49285;49.002;8.390;2023-09-18T12:41:45;3.60;;;2.13;;
1879;SDS011;49285;49.002;8.390;2023-09-18T12:44:12;3.50;;;2.07;;
1879;SDS011;49285;49.002;8.390;2023-09-18T12:46:42;3.37;;;2.30;;
1879;SDS011;49285;49.002;8.390;2023-09-18T12:51:43;3.37;;;2.23;;
1879;SDS011;49285;49.002;8.390;2023-09-18T12:54:09;2.57;;;2.00;;
1879;SDS011;49285;49.002;8.390;2023-09-18T12:56:42;4.30;;;2.30;;
1879;SDS011;49285;49.002;8.390;2023-09-18T12:59:08;3.80;;;2.33;;
1879;SDS011;49285;49.002;8.390;2023-09-18T13:01:34;3.37;;;2.00;;
1879;SDS011;49285;49.002;8.390;2023-09-18T13:04:03;4.07;;;3.47;;
1879;SDS011;49285;49.002;8.390;2023-09-18T13:06:30;5.93;;;2.40;;
1879;SDS011;49285;49.002;8.390;2023-09-18T13:09:14;3.13;;;1.93;;
1879;SDS011;49285;49.002;8.390;2023-09-18T13:11:53;3.80;;;2.13;;
1879;SDS011;49285;49.002;8.390;2023-09-18T13:14:21;3.03;;;2.40;;
1879;SDS011;49285;49.002;8.390;2023-09-18T13:16:47;2.67;;;2.30;;
1879;SDS011;49285;49.002;8.390;2023-09-18T13:19:12;4.60;;;2.43;;
1879;SDS011;49285;49.002;8.390;2023-09-18T13:21:38;4.67;;;2.00;;
1879;SDS011;49285;49.002;8.390;2023-09-18T13:26:53;5.10;;;2.60;;
1879;SDS011;49285;49.002;8.390;2023-09-18T13:29:20;3.70;;;2.40;;
1879;SDS011;49285;49.002;8.390;2023-09-18T13:31:46;3.03;;;2.10;;
1879;SDS011;49285;49.002;8.390;2023-09-18T13:34:12;2.87;;;2.30;;
1879;SDS011;49285;49.002;8.390;2023-09-18T13:36:37;2.93;;;2.13;;
1879;SDS011;49285;49.002;8.390;2023-09-18T13:39:03;2.70;;;2.10;;
1879;SDS011;49285;49.002;8.390;2023-09-18T13:41:29;3.40;;;2.30;;
1879;SDS011;49285;49.002;8.390;2023-09-18T13:43:56;4.50;;;2.10;;
1879;SDS011;49285;49.002;8.390;2023-09-18T13:46:22;3.70;;;2.77;;
1879;SDS011;49285;49.002;8.390;2023-09-18T13:48:48;5.50;;;3.00;;
1879;SDS011;49285;49.002;8.390;2023-09-18T13:51:14;7.20;;;3.13;;
1879;SDS011;49285;49.002;8.390;2023-09-18T13:53:40;4.07;;;2.70;;
1879;SDS011;49285;49.002;8.390;2023-09-18T13:56:06;4.17;;;2.27;;
1879;SDS011;49285;49.002;8.390;2023-09-18T13:58:32;3.67;;;2.07;;
1879;SDS011;49285;49.002;8.390;2023-09-18T14:00:58;3.50;;;2.30;;
1879;SDS011;49285;49.002;8.390;2023-09-18T14:03:24;4.90;;;3.20;;
1879;SDS011;49285;49.002;8.390;2023-09-18T14:05:50;3.73;;;2.27;;
1879;SDS011;49285;49.002;8.390;2023-09-18T14:08:15;3.03;;;2.20;;
1879;SDS011;49285;49.002;8.390;2023-09-18T14:10:42;3.47;;;2.20;;
1879;SDS011;49285;49.002;8.390;2023-09-18T14:13:08;3.30;;;2.60;;
1879;SDS011;49285;49.002;8.390;2023-09-18T14:15:34;4.63;;;2.97;;
1879;SDS011;49285;49.002;8.390;2023-09-18T14:18:00;3.30;;;2.43;;
1879;SDS011;49285;49.002;8.390;2023-09-18T14:20:26;4.50;;;2.70;;
1879;SDS011;49285;49.002;8.390;2023-09-18T14:22:51;4.60;;;2.93;;
1879;SDS011;49285;49.002;8.390;2023-09-18T14:25:17;3.50;;;2.20;;
1879;SDS011;49285;49.002;8.390;2023-09-18T14:27:44;5.07;;;2.67;;
1879;SDS011;49285;49.002;8.390;2023-09-18T14:30:10;4.07;;;2.33;;
1879;SDS011;49285;49.002;8.390;2023-09-18T14:32:38;3.93;;;2.30;;
1879;SDS011;49285;49.002;8.390;2023-09-18T14:35:04;5.37;;;2.90;;
1879;SDS011;49285;49.002;8.390;2023-09-18T14:37:33;3.90;;;2.83;;
1879;SDS011;49285;49.002;8.390;2023-09-18T14:39:59;3.77;;;2.20;;
1879;SDS011;49285;49.002;8.390;2023-09-18T14:42:25;3.50;;;2.40;;
1879;SDS011;49285;49.002;8.390;2023-09-18T14:44:51;3.33;;;2.13;;
1879;SDS011;49285;49.002;8.390;2023-09-18T14:47:17;3.53;;;2.40;;
1879;SDS011;49285;49.002;8.390;2023-09-18T14:49:42;6.80;;;2.40;;
1879;SDS011;49285;49.002;8.390;2023-09-18T14:52:12;2.73;;;2.20;;
1879;SDS011;49285;49.002;8.390;2023-09-18T14:54:40;2.90;;;2.23;;
1879;SDS011;49285;49.002;8.390;2023-09-18T14:57:05;3.73;;;2.43;;
1879;SDS011;49285;49.002;8.390;2023-09-18T14:59:31;3.30;;;2.17;;
1879;SDS011;49285;49.002;8.390;2023-09-18T15:01:57;3.60;;;2.13;;
1879;SDS011;49285;49.002;8.390;2023-09-18T15:04:22;3.17;;;2.10;;
1879;SDS011;49285;49.002;8.390;2023-09-18T15:06:48;3.83;;;2.90;;
1879;SDS011;49285;49.002;8.390;2023-09-18T15:09:14;3.80;;;2.50;;
1879;SDS011;49285;49.002;8.390;2023-09-18T15:11:39;2.50;;;2.30;;
1879;SDS011;49285;49.002;8.390;2023-09-18T15:14:05;3.30;;;2.60;;
1879;SDS011;49285;49.002;8.390;2023-09-18T15:16:31;5.73;;;2.63;;
1879;SDS011;49285;49.002;8.390;2023-09-18T15:18:57;3.60;;;2.10;;
1879;SDS011;49285;49.002;8.390;2023-09-18T15:21:27;2.33;;;2.03;;
1879;SDS011;49285;49.002;8.390;2023-09-18T15:23:53;3.20;;;2.10;;
1879;SDS011;49285;49.002;8.390;2023-09-18T15:26:18;3.83;;;2.70;;
1879;SDS011;49285;49.002;8.390;2023-09-18T15:28:44;6.80;;;2.40;;
1879;SDS011;49285;49.002;8.390;2023-09-18T15:31:10;4.40;;;2.23;;
1879;SDS011;49285;49.002;8.390;2023-09-18T15:33:35;3.60;;;2.73;;
1879;SDS011;49285;49.002;8.390;2023-09-18T15:36:02;2.93;;;2.33;;